Time;durP1;ratioP1;P1;durP2;ratioP2;P2;SDS_P1;SDS_P2;PMS_P1;PMS_P2;Temp;Humidity;BMP_temperature;BMP_pressure;BME280_temperature;BME280_humidity;BME280_pressure;Samples;Min_cycle;Max_cycle;Signal;HPM_P1;HPM_P2
2023/08/10 00:00:15;;;;;;;1.63;1.30;;;14.50;99.90;;;;;;4996480;28;20041;-63
2023/08/10 00:02:44;;;;;;;1.67;1.42;;;14.60;99.90;;;;;;4993858;28;20161;-64
2023/08/10 00:05:11;;;;;;;1.50;1.40;;;14.60;99.90;;;;;;4992498;28;20053;-63
2023/08/10 00:07:37;;;;;;;2.78;1.80;;;14.70;99.90;;;;;;4991075;28;20053;-64
2023/08/10 00:10:04;;;;;;;3.65;1.40;;;14.70;99.90;;;;;;4988699;28;20085;-64
2023/08/10 00:12:30;;;;;;;3.35;1.25;;;14.80;99.90;;;;;;4988512;28;20034;-63
2023/08/10 00:14:56;;;;;;;4.47;1.77;;;14.80;99.90;;;;;;4998017;28;20834;-64
2023/08/10 00:17:23;;;;;;;2.38;1.40;;;14.80;99.90;;;;;;4994692;28;20069;-64
2023/08/10 00:19:49;;;;;;;1.65;1.25;;;14.80;99.90;;;;;;4994871;28;20051;-64
2023/08/10 00:22:15;;;;;;;1.67;1.10;;;14.80;99.90;;;;;;4991967;28;20049;-64
2023/08/10 00:24:41;;;;;;;2.97;1.50;;;14.80;99.90;;;;;;4991495;28;20070;-64
2023/08/10 00:27:06;;;;;;;2.15;1.50;;;14.70;99.90;;;;;;4987701;28;20042;-64
2023/08/10 00:29:33;;;;;;;2.72;1.40;;;14.70;99.90;;;;;;4971068;28;20763;-64
2023/08/10 00:31:59;;;;;;;1.52;1.40;;;14.70;99.90;;;;;;4999859;28;20030;-64
2023/08/10 00:34:25;;;;;;;2.03;1.60;;;14.70;99.90;;;;;;4994712;28;20046;-63
2023/08/10 00:36:51;;;;;;;1.95;1.45;;;14.80;99.90;;;;;;4974263;28;20038;-63
2023/08/10 00:39:19;;;;;;;2.58;1.80;;;14.70;99.90;;;;;;4967881;28;20410;-64
2023/08/10 00:41:45;;;;;;;4.15;1.90;;;14.80;99.90;;;;;;4991585;28;20038;-64
2023/08/10 00:44:11;;;;;;;1.50;1.40;;;14.80;99.90;;;;;;4971904;28;20104;-64
2023/08/10 00:46:37;;;;;;;2.17;1.80;;;14.80;99.90;;;;;;4988576;28;20038;-64
2023/08/10 00:49:04;;;;;;;2.92;1.50;;;14.80;99.90;;;;;;4977325;28;20913;-63
2023/08/10 00:51:30;;;;;;;2.05;1.85;;;14.80;99.90;;;;;;4968788;28;20042;-64
2023/08/10 00:53:56;;;;;;;1.48;1.20;;;14.90;99.90;;;;;;4994484;28;20049;-63
2023/08/10 00:56:22;;;;;;;2.83;1.83;;;14.90;99.90;;;;;;4974132;28;20688;-64
2023/08/10 00:58:49;;;;;;;1.88;1.52;;;14.90;99.90;;;;;;4992030;28;20030;-63
2023/08/10 01:01:15;;;;;;;4.15;1.58;;;14.80;99.90;;;;;;4988382;28;20065;-63
2023/08/10 01:03:41;;;;;;;2.78;1.92;;;14.90;99.90;;;;;;4988825;28;20104;-64
2023/08/10 01:06:20;;;;;;;1.60;1.50;;;14.80;99.90;;;;;;4973411;28;20486;-64
2023/08/10 01:09:00;;;;;;;2.30;1.80;;;14.80;99.90;;;;;;4995814;28;20394;-64
2023/08/10 01:11:40;;;;;;;2.90;1.70;;;14.80;99.90;;;;;;4971486;28;20041;-64
2023/08/10 01:14:09;;;;;;;2.13;1.45;;;14.80;99.90;;;;;;4971662;28;20037;-64
2023/08/10 01:16:40;;;;;;;1.23;1.13;;;14.70;99.90;;;;;;4967063;28;20125;-64
2023/08/10 01:19:21;;;;;;;5.20;1.27;;;14.70;99.90;;;;;;4988606;28;20069;-63
2023/08/10 01:22:29;;;;;;;2.17;1.30;;;14.70;99.90;;;;;;4968559;28;20035;-64
2023/08/10 01:25:04;;;;;;;5.18;1.40;;;14.60;99.90;;;;;;4991996;28;20046;-64
2023/08/10 01:27:31;;;;;;;5.05;1.20;;;14.50;99.90;;;;;;4967371;28;20592;-64
2023/08/10 01:30:00;;;;;;;2.75;1.33;;;14.50;99.90;;;;;;4976547;28;20138;-64
2023/08/10 01:32:28;;;;;;;7.07;1.40;;;14.40;99.90;;;;;;4969627;28;20031;-63
2023/08/10 01:34:54;;;;;;;2.88;1.02;;;14.30;99.90;;;;;;4973797;28;20038;-63
2023/08/10 01:37:21;;;;;;;2.13;1.17;;;14.30;99.90;;;;;;4970977;28;20030;-64
2023/08/10 01:39:47;;;;;;;2.05;0.98;;;14.20;99.90;;;;;;4970175;28;20414;-64
2023/08/10 01:42:13;;;;;;;2.50;1.25;;;14.10;99.90;;;;;;4976411;28;20034;-64
2023/08/10 01:44:38;;;;;;;2.03;1.25;;;14.00;99.90;;;;;;4975618;28;20034;-64
2023/08/10 01:47:11;;;;;;;5.43;1.33;;;14.00;99.90;;;;;;4976952;28;20045;-64
2023/08/10 01:49:38;;;;;;;1.95;1.15;;;13.90;99.90;;;;;;4973381;28;20065;-63
2023/08/10 01:52:07;;;;;;;1.70;1.30;;;13.80;99.90;;;;;;4970228;28;20126;-64
2023/08/10 01:54:36;;;;;;;1.23;1.13;;;13.90;99.90;;;;;;4971171;28;20088;-64
2023/08/10 01:57:02;;;;;;;2.95;1.20;;;13.80;99.90;;;;;;4970074;28;20050;-63
2023/08/10 01:59:29;;;;;;;2.03;1.23;;;13.80;99.90;;;;;;4990316;28;20069;-64
2023/08/10 02:01:55;;;;;;;1.98;1.30;;;13.80;99.90;;;;;;4977872;28;20410;-63
2023/08/10 02:04:21;;;;;;;1.73;1.45;;;13.70;99.90;;;;;;4992808;28;20031;-64
2023/08/10 02:06:47;;;;;;;2.78;1.40;;;13.70;99.90;;;;;;4974597;28;20022;-64
2023/08/10 02:09:13;;;;;;;4.05;1.58;;;13.70;99.90;;;;;;4990469;28;20034;-64
2023/08/10 02:11:39;;;;;;;3.72;2.05;;;13.70;99.90;;;;;;4970918;28;20679;-64
2023/08/10 02:14:05;;;;;;;1.98;1.23;;;13.60;99.90;;;;;;4988228;28;20069;-64
2023/08/10 02:16:30;;;;;;;1.67;1.23;;;13.60;99.90;;;;;;4981446;28;20127;-64
2023/08/10 02:18:56;;;;;;;3.85;1.20;;;13.60;99.90;;;;;;4996249;28;20069;-64
2023/08/10 02:21:26;;;;;;;2.35;1.42;;;13.60;99.90;;;;;;4974672;28;20594;-64
2023/08/10 02:23:52;;;;;;;2.67;1.33;;;13.50;99.90;;;;;;4993074;28;20038;-64
2023/08/10 02:26:18;;;;;;;4.40;1.30;;;13.50;99.90;;;;;;4989831;28;20438;-64
2023/08/10 02:28:44;;;;;;;2.95;1.38;;;13.50;99.90;;;;;;4972354;28;20041;-64
2023/08/10 02:31:10;;;;;;;1.95;1.20;;;13.40;99.90;;;;;;4970048;28;20038;-64
2023/08/10 02:33:36;;;;;;;3.53;1.20;;;13.40;99.90;;;;;;4986179;28;20038;-64
2023/08/10 02:36:01;;;;;;;3.53;1.60;;;13.30;99.90;;;;;;4978830;28;20524;-64
2023/08/10 02:38:27;;;;;;;2.38;1.15;;;13.30;99.90;;;;;;4994109;28;20030;-64
2023/08/10 02:40:53;;;;;;;1.83;1.25;;;13.30;99.90;;;;;;4993017;28;20049;-64
2023/08/10 02:43:19;;;;;;;5.10;1.40;;;13.30;99.90;;;;;;4972065;28;20046;-63
2023/08/10 02:45:45;;;;;;;3.13;1.45;;;13.20;99.90;;;;;;4969581;28;20039;-64
2023/08/10 02:48:11;;;;;;;3.10;1.45;;;13.20;99.90;;;;;;4983891;28;20034;-64
2023/08/10 02:50:36;;;;;;;3.50;1.52;;;13.20;99.90;;;;;;4968701;28;20030;-64
2023/08/10 02:53:03;;;;;;;1.92;1.42;;;13.30;99.90;;;;;;4975113;28;20030;-64
2023/08/10 02:55:28;;;;;;;3.13;1.58;;;13.30;99.90;;;;;;4992108;28;20096;-64
2023/08/10 02:57:54;;;;;;;2.30;1.25;;;13.30;99.90;;;;;;4993624;28;20418;-63
2023/08/10 03:00:20;;;;;;;3.80;1.73;;;13.30;99.90;;;;;;4972287;28;20034;-64
2023/08/10 03:02:50;;;;;;;2.03;1.50;;;13.30;99.90;;;;;;4989961;28;20057;-64
2023/08/10 03:05:19;;;;;;;4.38;1.70;;;13.40;99.90;;;;;;4969774;28;20087;-64
2023/08/10 03:07:45;;;;;;;3.70;1.42;;;13.30;99.90;;;;;;4950989;28;20090;-63
2023/08/10 03:10:11;;;;;;;1.45;1.35;;;13.40;99.90;;;;;;4989169;28;20025;-64
2023/08/10 03:12:39;;;;;;;1.25;1.10;;;13.40;99.90;;;;;;4974645;28;20820;-63
2023/08/10 03:15:09;;;;;;;4.85;1.40;;;13.40;99.90;;;;;;4975674;28;20137;-64
2023/08/10 03:17:36;;;;;;;1.55;1.20;;;13.40;99.90;;;;;;4972155;28;20062;-64
2023/08/10 03:20:06;;;;;;;1.52;1.20;;;13.30;99.90;;;;;;4969006;28;20065;-63
2023/08/10 03:22:33;;;;;;;3.38;1.27;;;13.30;99.90;;;;;;4986543;28;20470;-64
2023/08/10 03:24:59;;;;;;;3.10;1.38;;;13.30;99.90;;;;;;4980752;28;20041;-63
2023/08/10 03:27:24;;;;;;;3.15;1.20;;;13.20;99.90;;;;;;4985268;28;20045;-64
2023/08/10 03:29:51;;;;;;;1.30;1.05;;;13.20;99.90;;;;;;4994283;28;20022;-63
2023/08/10 03:32:16;;;;;;;2.95;1.40;;;13.10;99.90;;;;;;4974337;28;20030;-63
2023/08/10 03:34:42;;;;;;;2.10;1.23;;;13.10;99.90;;;;;;4990747;28;20035;-63
2023/08/10 03:37:08;;;;;;;2.83;1.38;;;13.10;99.90;;;;;;4990141;28;20453;-63
2023/08/10 03:39:34;;;;;;;1.38;1.17;;;13.10;99.90;;;;;;4970382;28;20066;-64
2023/08/10 03:41:59;;;;;;;2.17;1.20;;;13.10;99.90;;;;;;4969549;28;20029;-63
2023/08/10 03:44:26;;;;;;;3.88;1.40;;;13.10;99.90;;;;;;4967791;28;20034;-63
2023/08/10 03:46:53;;;;;;;2.15;1.42;;;13.20;99.90;;;;;;4984102;28;20037;-63
2023/08/10 03:49:19;;;;;;;2.28;1.35;;;13.20;99.90;;;;;;4974012;28;20034;-63
2023/08/10 03:51:45;;;;;;;2.58;1.63;;;13.10;99.90;;;;;;4958019;28;20516;-63
2023/08/10 03:54:12;;;;;;;2.72;1.65;;;13.10;99.90;;;;;;4985133;28;20061;-63
2023/08/10 03:56:38;;;;;;;1.70;1.50;;;13.10;99.90;;;;;;4987468;28;20458;-63
2023/08/10 03:59:04;;;;;;;1.88;1.40;;;13.20;99.90;;;;;;4969540;28;20069;-63
2023/08/10 04:01:30;;;;;;;1.88;1.10;;;13.20;99.90;;;;;;4967730;28;20038;-64
2023/08/10 04:03:56;;;;;;;2.20;1.33;;;13.20;99.90;;;;;;4972824;28;20054;-63
2023/08/10 04:06:22;;;;;;;2.47;1.02;;;13.30;99.90;;;;;;4990959;28;20564;-64
2023/08/10 04:08:48;;;;;;;1.75;1.38;;;13.30;99.90;;;;;;4991383;28;21002;-63
2023/08/10 04:11:14;;;;;;;2.85;1.48;;;13.30;99.90;;;;;;4989431;28;20030;-64
2023/08/10 04:13:40;;;;;;;3.70;2.03;;;13.30;99.90;;;;;;4970582;28;20390;-64
2023/08/10 04:16:06;;;;;;;5.30;1.65;;;13.30;99.90;;;;;;4983460;28;20038;-63
2023/08/10 04:18:31;;;;;;;3.03;1.52;;;13.30;99.90;;;;;;4984620;28;20479;-63
2023/08/10 04:20:58;;;;;;;1.40;1.30;;;13.30;99.90;;;;;;4969880;28;20030;-64
2023/08/10 04:23:23;;;;;;;1.77;1.30;;;13.30;99.90;;;;;;4991953;28;20077;-64
2023/08/10 04:25:49;;;;;;;2.35;1.45;;;13.30;99.90;;;;;;4992289;28;20058;-63
2023/08/10 04:28:15;;;;;;;2.10;1.58;;;13.30;99.90;;;;;;4989916;28;20121;-63
2023/08/10 04:30:41;;;;;;;2.30;1.27;;;13.30;99.90;;;;;;4988605;28;20042;-63
2023/08/10 04:33:09;;;;;;;2.55;1.40;;;13.30;99.90;;;;;;4987855;28;20043;-63
2023/08/10 04:35:35;;;;;;;3.05;1.45;;;13.30;99.90;;;;;;4989872;28;20039;-63
2023/08/10 04:38:01;;;;;;;7.07;2.05;;;13.40;99.90;;;;;;4988756;28;20866;-64
2023/08/10 04:40:26;;;;;;;5.40;2.72;;;13.50;99.90;;;;;;4995232;28;20038;-63
2023/08/10 04:42:52;;;;;;;8.52;2.30;;;13.50;99.90;;;;;;4995745;28;20034;-63
2023/08/10 04:45:19;;;;;;;4.95;2.40;;;13.60;99.90;;;;;;4993342;28;20058;-63
2023/08/10 04:47:45;;;;;;;3.15;1.95;;;13.60;99.90;;;;;;4992768;28;20042;-63
2023/08/10 04:50:11;;;;;;;2.60;2.00;;;13.70;99.90;;;;;;4991227;28;20062;-64
2023/08/10 04:52:38;;;;;;;8.07;2.08;;;13.80;99.90;;;;;;4989580;28;20030;-64
2023/08/10 04:55:05;;;;;;;3.92;2.25;;;13.80;99.90;;;;;;4985839;28;20034;-63
2023/08/10 04:57:31;;;;;;;4.53;2.00;;;13.80;99.90;;;;;;4994931;28;20038;-64
2023/08/10 04:59:57;;;;;;;2.50;1.70;;;13.90;99.90;;;;;;4996560;28;20034;-63
2023/08/10 05:02:22;;;;;;;3.50;1.83;;;13.90;99.90;;;;;;4993138;28;20036;-63
2023/08/10 05:04:48;;;;;;;3.88;1.90;;;13.90;99.90;;;;;;4993335;28;20118;-63
2023/08/10 05:07:14;;;;;;;2.45;1.95;;;13.90;99.90;;;;;;4990583;28;20093;-63
2023/08/10 05:09:40;;;;;;;3.15;1.98;;;13.90;99.90;;;;;;4989926;28;20030;-63
2023/08/10 05:12:06;;;;;;;2.65;1.60;;;13.90;99.90;;;;;;4987909;28;20058;-64
2023/08/10 05:14:32;;;;;;;2.60;1.75;;;13.80;99.90;;;;;;4991379;28;20037;-64
2023/08/10 05:16:57;;;;;;;2.97;1.65;;;13.80;99.90;;;;;;4991789;28;20034;-63
2023/08/10 05:19:23;;;;;;;1.35;1.25;;;13.80;99.90;;;;;;4993525;28;20520;-63
2023/08/10 05:21:49;;;;;;;4.93;1.80;;;13.70;99.90;;;;;;4993693;28;20523;-64
2023/08/10 05:24:14;;;;;;;3.35;1.40;;;13.80;99.90;;;;;;4990724;28;20123;-64
2023/08/10 05:26:40;;;;;;;1.88;1.40;;;13.80;99.90;;;;;;4989791;28;20073;-63
2023/08/10 05:29:06;;;;;;;2.22;1.38;;;13.80;99.90;;;;;;4988401;28;20116;-64
2023/08/10 05:31:33;;;;;;;2.90;1.38;;;13.80;99.90;;;;;;4987415;28;20062;-63
2023/08/10 05:33:59;;;;;;;1.70;1.60;;;13.90;99.90;;;;;;4996846;28;20029;-64
2023/08/10 05:36:25;;;;;;;2.28;1.55;;;14.00;99.90;;;;;;4993136;28;20034;-63
2023/08/10 05:38:50;;;;;;;3.08;1.65;;;14.10;99.90;;;;;;4993914;28;20069;-63
2023/08/10 05:41:16;;;;;;;1.80;1.48;;;14.20;99.90;;;;;;4991060;28;20034;-64
2023/08/10 05:43:42;;;;;;;2.67;1.55;;;14.30;99.90;;;;;;4990150;28;20034;-63
2023/08/10 05:46:08;;;;;;;2.38;1.40;;;14.30;99.90;;;;;;4987202;28;20038;-64
2023/08/10 05:48:33;;;;;;;2.25;1.67;;;14.40;99.90;;;;;;4987329;28;20038;-64
2023/08/10 05:50:59;;;;;;;1.58;1.40;;;14.50;99.90;;;;;;4995047;28;20054;-64
2023/08/10 05:53:25;;;;;;;1.85;1.55;;;14.60;99.90;;;;;;4993301;28;20403;-64
2023/08/10 05:55:51;;;;;;;3.13;1.73;;;14.80;99.90;;;;;;4993408;28;20549;-64
2023/08/10 05:58:16;;;;;;;2.97;2.08;;;14.90;99.90;;;;;;4991412;28;20026;-63
2023/08/10 06:00:42;;;;;;;2.33;2.10;;;15.10;99.90;;;;;;4990417;28;20068;-63
2023/08/10 06:03:08;;;;;;;3.25;2.05;;;15.20;99.90;;;;;;4988841;28;20041;-63
2023/08/10 06:05:34;;;;;;;4.50;1.85;;;15.30;99.90;;;;;;4987258;28;20038;-64
2023/08/10 06:07:59;;;;;;;3.38;2.22;;;15.40;99.90;;;;;;4993282;28;20033;-64
2023/08/10 06:10:26;;;;;;;3.83;2.17;;;15.50;99.90;;;;;;4993316;28;20045;-64
2023/08/10 06:12:52;;;;;;;3.53;2.30;;;15.50;99.90;;;;;;4993407;28;20439;-64
2023/08/10 06:15:18;;;;;;;2.38;1.95;;;15.50;99.90;;;;;;4990242;28;20037;-64
2023/08/10 06:17:44;;;;;;;4.95;1.98;;;15.50;99.90;;;;;;4984969;28;20046;-64
2023/08/10 06:20:13;;;;;;;2.70;2.03;;;15.50;99.90;;;;;;4988861;28;20034;-64
2023/08/10 06:22:41;;;;;;;4.40;2.30;;;15.50;99.90;;;;;;4984043;28;20036;-64
2023/08/10 06:25:08;;;;;;;2.67;2.25;;;15.60;99.90;;;;;;4985962;28;20029;-64
2023/08/10 06:27:35;;;;;;;10.98;3.47;;;15.70;99.90;;;;;;4992533;28;20022;-64
2023/08/10 06:30:03;;;;;;;6.75;2.53;;;15.70;99.90;;;;;;4989431;28;20029;-64
2023/08/10 06:32:29;;;;;;;4.65;2.40;;;15.80;99.90;;;;;;4977892;28;20030;-64
2023/08/10 06:34:54;;;;;;;8.13;2.53;;;15.90;99.90;;;;;;4989010;28;20038;-64
2023/08/10 06:37:21;;;;;;;4.85;2.58;;;16.00;99.90;;;;;;4987982;28;20034;-64
2023/08/10 06:39:46;;;;;;;3.03;2.13;;;16.10;99.90;;;;;;4987982;28;20658;-64
2023/08/10 06:42:12;;;;;;;8.27;2.65;;;16.30;99.90;;;;;;4986139;28;20038;-64
2023/08/10 06:44:38;;;;;;;6.25;2.08;;;16.50;99.90;;;;;;4985581;28;20041;-64
2023/08/10 06:47:04;;;;;;;3.75;1.85;;;16.70;99.90;;;;;;4994471;28;20082;-64
2023/08/10 06:49:30;;;;;;;2.85;1.50;;;16.70;99.90;;;;;;4990332;28;20042;-64
2023/08/10 06:51:55;;;;;;;2.85;1.50;;;16.80;99.90;;;;;;4991026;28;20030;-64
2023/08/10 06:54:21;;;;;;;2.78;1.50;;;16.90;99.90;;;;;;4987962;28;20035;-64
2023/08/10 06:56:47;;;;;;;1.73;1.30;;;16.90;99.90;;;;;;4984264;28;20133;-64
2023/08/10 06:59:13;;;;;;;5.18;2.25;;;16.90;99.90;;;;;;4986350;28;20045;-64
2023/08/10 07:01:38;;;;;;;5.93;1.80;;;17.00;99.90;;;;;;4992918;28;20033;-64
2023/08/10 07:04:05;;;;;;;8.30;1.95;;;17.10;99.90;;;;;;4994293;28;20042;-64
2023/08/10 07:06:31;;;;;;;9.25;1.60;;;17.20;99.90;;;;;;4990731;28;20035;-64
2023/08/10 07:08:57;;;;;;;6.65;1.67;;;17.20;99.90;;;;;;4994458;28;20038;-64
2023/08/10 07:11:23;;;;;;;6.18;2.05;;;17.30;99.90;;;;;;4970730;28;20030;-64
2023/08/10 07:13:49;;;;;;;4.03;1.60;;;17.30;99.90;;;;;;4987784;28;20058;-64
2023/08/10 07:16:15;;;;;;;6.68;1.83;;;17.40;99.90;;;;;;4981981;28;20031;-64
2023/08/10 07:18:41;;;;;;;3.78;1.40;;;17.40;99.90;;;;;;4989945;28;20038;-64
2023/08/10 07:21:07;;;;;;;3.47;1.30;;;17.50;99.90;;;;;;4994711;28;20703;-64
2023/08/10 07:23:33;;;;;;;3.13;1.20;;;17.50;99.90;;;;;;4990714;28;20037;-64
2023/08/10 07:25:59;;;;;;;6.95;1.30;;;17.50;99.90;;;;;;4971090;28;20107;-64
2023/08/10 07:28:26;;;;;;;6.93;1.42;;;17.60;99.90;;;;;;4988343;28;20046;-64
2023/08/10 07:30:52;;;;;;;4.90;1.50;;;17.70;99.90;;;;;;4983514;28;20030;-64
2023/08/10 07:33:18;;;;;;;4.82;1.25;;;17.80;99.90;;;;;;4985978;28;20034;-64
2023/08/10 07:35:45;;;;;;;5.45;1.45;;;17.90;99.90;;;;;;4986086;28;20478;-64
2023/08/10 07:38:12;;;;;;;4.95;1.40;;;17.90;99.90;;;;;;4994272;28;20507;-64
2023/08/10 07:40:38;;;;;;;8.82;1.38;;;18.00;99.90;;;;;;4991011;28;20100;-64
2023/08/10 07:43:04;;;;;;;8.15;1.23;;;18.10;99.90;;;;;;4991915;28;20038;-64
2023/08/10 07:45:29;;;;;;;5.72;1.33;;;18.30;99.90;;;;;;4988617;28;20034;-64
2023/08/10 07:47:55;;;;;;;5.03;1.52;;;18.30;99.90;;;;;;4988829;28;20034;-64
2023/08/10 07:50:21;;;;;;;2.75;1.20;;;18.40;99.90;;;;;;4986156;28;20039;-64
2023/08/10 07:52:47;;;;;;;4.72;1.33;;;18.60;99.90;;;;;;4985010;28;20110;-64
2023/08/10 07:55:13;;;;;;;6.28;1.48;;;18.70;99.90;;;;;;4991731;28;20030;-64
2023/08/10 07:57:39;;;;;;;7.90;1.58;;;18.80;99.90;;;;;;4991153;28;20042;-64
2023/08/10 08:00:06;;;;;;;3.83;1.40;;;18.90;99.90;;;;;;4992054;28;20092;-64
2023/08/10 08:02:41;;;;;;;8.63;1.52;;;18.90;99.90;;;;;;4989151;28;20046;-64
2023/08/10 08:05:07;;;;;;;3.97;1.40;;;19.00;99.90;;;;;;4988522;28;20033;-64
2023/08/10 08:07:33;;;;;;;6.68;1.52;;;19.00;99.90;;;;;;4986621;28;20118;-64
2023/08/10 08:09:59;;;;;;;4.80;1.52;;;19.00;99.90;;;;;;4980745;28;20065;-64
2023/08/10 08:12:26;;;;;;;4.65;1.48;;;19.00;99.90;;;;;;4986765;28;20053;-64
2023/08/10 08:14:53;;;;;;;8.90;1.75;;;19.00;99.90;;;;;;4996816;28;20121;-64
2023/08/10 08:17:20;;;;;;;3.72;1.35;;;19.00;99.90;;;;;;4994209;28;20389;-64
2023/08/10 08:19:46;;;;;;;2.45;1.40;;;19.00;99.90;;;;;;4993869;28;20073;-64
2023/08/10 08:22:11;;;;;;;5.57;1.50;;;19.00;99.90;;;;;;4992065;28;20443;-65
2023/08/10 08:24:38;;;;;;;3.22;1.30;;;19.10;99.90;;;;;;4990487;28;20034;-64
2023/08/10 08:27:04;;;;;;;2.58;1.23;;;19.20;99.90;;;;;;4989366;28;20125;-64
2023/08/10 08:29:31;;;;;;;6.28;1.50;;;19.20;99.90;;;;;;4992132;28;20042;-64
2023/08/10 08:31:57;;;;;;;5.22;1.50;;;19.40;99.90;;;;;;4997696;28;20133;-64
2023/08/10 08:34:23;;;;;;;6.93;1.52;;;19.40;99.90;;;;;;4993838;28;20064;-64
2023/08/10 08:36:49;;;;;;;7.10;1.33;;;19.40;99.90;;;;;;4994035;28;20034;-64
2023/08/10 08:39:15;;;;;;;7.53;1.48;;;19.40;99.90;;;;;;4991483;28;20054;-64
2023/08/10 08:41:41;;;;;;;5.45;1.38;;;19.40;99.90;;;;;;4990707;28;20133;-64
2023/08/10 08:44:08;;;;;;;7.82;1.67;;;19.50;99.70;;;;;;4971637;28;20691;-64
2023/08/10 08:46:41;;;;;;;6.78;1.50;;;19.50;98.50;;;;;;4988009;28;20038;-64
2023/08/10 08:49:08;;;;;;;3.90;1.10;;;19.60;96.50;;;;;;4991773;28;20116;-64
2023/08/10 08:51:34;;;;;;;7.03;1.10;;;19.60;96.30;;;;;;4995881;28;20109;-64
2023/08/10 08:54:01;;;;;;;4.65;1.10;;;19.70;96.80;;;;;;4994796;28;20022;-64
2023/08/10 08:56:27;;;;;;;3.35;0.98;;;19.80;96.80;;;;;;4991405;28;20038;-64
2023/08/10 08:58:53;;;;;;;3.58;0.88;;;19.90;96.60;;;;;;4991469;28;20084;-64
2023/08/10 09:01:20;;;;;;;1.92;1.08;;;20.20;95.10;;;;;;4988852;28;20053;-64
2023/08/10 09:03:46;;;;;;;2.90;1.13;;;20.30;94.10;;;;;;4981915;28;20076;-64
2023/08/10 09:06:12;;;;;;;2.63;1.20;;;20.30;94.50;;;;;;4992505;28;20662;-64
2023/08/10 09:08:39;;;;;;;3.33;1.13;;;20.30;95.20;;;;;;4987950;28;20034;-65
2023/08/10 09:11:05;;;;;;;3.25;0.93;;;20.40;94.90;;;;;;4994781;28;20065;-64
2023/08/10 09:13:31;;;;;;;4.53;1.30;;;20.30;94.60;;;;;;4991440;28;20108;-64
2023/08/10 09:16:04;;;;;;;3.50;1.27;;;20.30;94.00;;;;;;4990560;28;20490;-64
2023/08/10 09:18:34;;;;;;;3.10;1.10;;;20.40;93.30;;;;;;4985659;28;20442;-64
2023/08/10 09:21:30;;;;;;;5.65;1.10;;;20.40;93.30;;;;;;4987170;28;20076;-64
2023/08/10 09:23:55;;;;;;;4.95;1.40;;;20.40;93.90;;;;;;4994026;28;20057;-64
2023/08/10 09:26:25;;;;;;;4.50;1.10;;;20.40;93.60;;;;;;4994141;28;20034;-65
2023/08/10 09:28:51;;;;;;;4.80;1.30;;;20.40;92.90;;;;;;4994227;28;20037;-64
2023/08/10 09:31:26;;;;;;;3.78;1.38;;;20.40;93.50;;;;;;4991469;28;20256;-64
2023/08/10 09:33:57;;;;;;;3.78;1.25;;;20.50;93.60;;;;;;4989859;28;20065;-64
2023/08/10 09:36:31;;;;;;;3.10;0.90;;;20.50;93.60;;;;;;4988659;28;20120;-65
2023/08/10 09:38:57;;;;;;;7.03;1.20;;;20.40;92.70;;;;;;4987416;28;20917;-65
2023/08/10 09:41:23;;;;;;;5.40;1.35;;;20.50;93.80;;;;;;4993989;28;20050;-65
2023/08/10 09:43:49;;;;;;;4.68;1.30;;;20.70;92.60;;;;;;4994674;28;20026;-64
2023/08/10 09:46:16;;;;;;;2.47;1.02;;;20.80;92.20;;;;;;4988118;28;20046;-64
2023/08/10 09:48:50;;;;;;;3.42;1.30;;;20.90;92.70;;;;;;4978479;28;20044;-64
2023/08/10 09:51:16;;;;;;;5.10;1.27;;;20.90;92.30;;;;;;4985387;28;20037;-64
2023/08/10 09:53:42;;;;;;;5.57;1.30;;;20.90;92.60;;;;;;4984684;28;20065;-64
2023/08/10 09:56:08;;;;;;;4.57;1.15;;;20.90;91.80;;;;;;4981704;28;20080;-64
2023/08/10 09:58:40;;;;;;;4.07;1.00;;;20.90;91.00;;;;;;4960284;28;20035;-64
2023/08/10 10:01:07;;;;;;;2.70;1.00;;;20.90;91.40;;;;;;4989856;28;20048;-63
2023/08/10 10:03:33;;;;;;;7.57;1.33;;;20.90;92.80;;;;;;4991488;28;20034;-64
2023/08/10 10:06:01;;;;;;;3.67;1.30;;;21.00;93.00;;;;;;4985093;28;20061;-64
2023/08/10 10:08:28;;;;;;;4.35;1.17;;;21.10;92.60;;;;;;4989544;28;20117;-64
2023/08/10 10:10:59;;;;;;;5.15;1.77;;;21.20;92.10;;;;;;4989351;28;20038;-64
2023/08/10 10:13:26;;;;;;;9.90;5.38;;;21.20;91.70;;;;;;4986484;28;20046;-64
2023/08/10 10:15:54;;;;;;;5.47;3.10;;;21.10;92.00;;;;;;4991898;28;20026;-64
2023/08/10 10:18:20;;;;;;;3.85;2.05;;;21.10;93.10;;;;;;4993561;28;20061;-64
2023/08/10 10:20:46;;;;;;;4.38;1.73;;;21.10;91.60;;;;;;4992526;28;20034;-64
2023/08/10 10:23:17;;;;;;;8.40;1.90;;;21.00;92.30;;;;;;4991625;28;20058;-64
2023/08/10 10:26:00;;;;;;;7.43;3.28;;;21.00;93.00;;;;;;4990203;28;20050;-64
2023/08/10 10:28:28;;;;;;;13.18;5.60;;;20.90;91.40;;;;;;4985162;28;20045;-63
2023/08/10 10:31:16;;;;;;;28.70;15.35;;;20.80;91.90;;;;;;4987291;28;20244;-64
2023/08/10 10:33:55;;;;;;;8.93;4.35;;;20.80;91.40;;;;;;4987019;28;20700;-64
2023/08/10 10:36:20;;;;;;;17.83;8.65;;;20.80;90.70;;;;;;4993250;28;20034;-64
2023/08/10 10:38:49;;;;;;;10.07;4.07;;;20.80;91.00;;;;;;4992285;28;20030;-64
2023/08/10 10:41:17;;;;;;;26.00;10.93;;;20.80;91.50;;;;;;4990216;28;20046;-64
2023/08/10 10:43:46;;;;;;;8.88;4.05;;;20.90;92.50;;;;;;4989486;28;20057;-64
2023/08/10 10:46:30;;;;;;;13.00;6.15;;;20.90;92.00;;;;;;4987688;28;20046;-65
2023/08/10 10:48:57;;;;;;;3.60;1.10;;;21.10;91.80;;;;;;4985649;28;20121;-64
2023/08/10 10:51:24;;;;;;;4.07;1.30;;;21.20;90.30;;;;;;4989723;28;20056;-64
2023/08/10 10:53:53;;;;;;;3.33;1.20;;;21.10;91.40;;;;;;4993828;28;20046;-64
2023/08/10 10:56:20;;;;;;;6.20;2.35;;;21.10;91.70;;;;;;4991368;28;20542;-65
2023/08/10 10:58:47;;;;;;;36.28;16.63;;;21.20;91.30;;;;;;4990907;28;20065;-65
2023/08/10 11:01:18;;;;;;;27.67;9.98;;;21.30;91.10;;;;;;4988582;28;20045;-65
2023/08/10 11:03:54;;;;;;;8.05;2.22;;;21.40;91.00;;;;;;4985573;28;20030;-65
2023/08/10 11:06:20;;;;;;;3.78;1.17;;;21.50;90.60;;;;;;4983164;28;20058;-65
2023/08/10 11:08:54;;;;;;;9.00;4.78;;;21.70;90.60;;;;;;4985858;28;20053;-65
2023/08/10 11:11:21;;;;;;;5.18;2.50;;;22.00;90.20;;;;;;4966948;28;20030;-65
2023/08/10 11:13:48;;;;;;;4.07;1.65;;;22.20;90.40;;;;;;4983778;28;20033;-65
2023/08/10 11:16:15;;;;;;;5.57;1.80;;;22.30;89.60;;;;;;4985377;28;20042;-65
2023/08/10 11:18:45;;;;;;;4.00;1.40;;;22.20;87.20;;;;;;4987153;28;20042;-65
2023/08/10 11:21:12;;;;;;;5.57;1.90;;;22.20;86.20;;;;;;4987107;28;20034;-65
2023/08/10 11:23:39;;;;;;;2.80;1.20;;;22.20;84.80;;;;;;4985892;28;20049;-65
2023/08/10 11:26:05;;;;;;;2.65;1.55;;;22.10;84.20;;;;;;4988130;28;20042;-65
2023/08/10 11:28:31;;;;;;;7.85;3.58;;;22.00;82.10;;;;;;4987372;28;20065;-65
2023/08/10 11:31:02;;;;;;;7.18;3.05;;;22.00;84.50;;;;;;4992543;28;20065;-65
2023/08/10 11:33:29;;;;;;;4.47;1.98;;;22.10;85.00;;;;;;4985517;28;20046;-65
2023/08/10 11:35:56;;;;;;;5.28;1.70;;;22.20;84.20;;;;;;4990021;28;20038;-65
2023/08/10 11:38:23;;;;;;;3.00;1.20;;;22.30;89.40;;;;;;4987222;28;20042;-65
2023/08/10 11:40:49;;;;;;;6.03;1.25;;;22.50;88.40;;;;;;4986070;28;20038;-65
2023/08/10 11:43:19;;;;;;;5.00;1.08;;;22.50;88.70;;;;;;4984311;28;20077;-65
2023/08/10 11:45:46;;;;;;;7.55;1.30;;;22.50;88.50;;;;;;4988672;28;20036;-65
2023/08/10 11:48:16;;;;;;;5.72;1.33;;;22.40;87.20;;;;;;4991870;28;20038;-65
2023/08/10 11:50:43;;;;;;;2.80;1.02;;;22.40;88.40;;;;;;4990106;28;20038;-65
2023/08/10 11:53:14;;;;;;;1.92;0.80;;;22.40;86.80;;;;;;4989509;28;20049;-65
2023/08/10 11:55:48;;;;;;;4.95;1.05;;;22.40;86.80;;;;;;4987246;28;20034;-65
2023/08/10 11:58:14;;;;;;;4.20;1.13;;;22.50;89.10;;;;;;4982160;28;20766;-65
2023/08/10 12:00:41;;;;;;;3.28;1.25;;;22.50;85.30;;;;;;4984952;28;20388;-65
2023/08/10 12:03:12;;;;;;;7.55;1.38;;;22.50;88.40;;;;;;4991122;28;20026;-65
2023/08/10 12:05:47;;;;;;;4.85;1.20;;;22.50;89.30;;;;;;4981190;28;20061;-65
2023/08/10 12:08:15;;;;;;;3.53;1.00;;;22.50;88.10;;;;;;4990560;28;20036;-65
2023/08/10 12:10:50;;;;;;;5.53;1.13;;;22.50;86.70;;;;;;4987204;28;20206;-66
2023/08/10 12:13:17;;;;;;;3.67;1.30;;;22.50;86.00;;;;;;4983492;28;20038;-66
2023/08/10 12:15:51;;;;;;;2.55;1.35;;;22.50;85.20;;;;;;4965992;28;20034;-66
2023/08/10 12:18:21;;;;;;;4.82;1.20;;;22.50;86.30;;;;;;4981510;28;20034;-66
2023/08/10 12:20:52;;;;;;;3.35;1.33;;;22.60;84.90;;;;;;4989280;28;20046;-66
2023/08/10 12:23:19;;;;;;;4.72;1.25;;;22.50;83.60;;;;;;4992066;28;20045;-65
2023/08/10 12:25:46;;;;;;;3.78;1.23;;;22.50;85.10;;;;;;4990698;28;20265;-65
2023/08/10 12:28:13;;;;;;;3.65;1.00;;;22.60;83.50;;;;;;4989674;28;20055;-65
2023/08/10 12:30:39;;;;;;;1.80;1.00;;;22.50;84.20;;;;;;4983005;28;20149;-65
2023/08/10 12:33:10;;;;;;;6.30;1.30;;;22.60;83.90;;;;;;4981955;28;20502;-65
2023/08/10 12:35:36;;;;;;;3.33;1.23;;;22.60;83.70;;;;;;4985514;28;20045;-65
2023/08/10 12:38:03;;;;;;;4.43;1.00;;;22.60;83.10;;;;;;4991431;28;20049;-63
2023/08/10 12:40:30;;;;;;;5.35;3.33;;;22.60;83.60;;;;;;4990685;28;20041;-62
2023/08/10 12:42:58;;;;;;;5.38;2.30;;;22.60;85.80;;;;;;4993083;28;20038;-62
2023/08/10 12:45:24;;;;;;;8.05;3.65;;;22.50;84.60;;;;;;4985327;28;20041;-63